sensor_id;sensor_type;location;lat;lon;timestamp;pressure;altitude;pressure_sealevel;temperature;humidity
66689;BME280;53587;59.318;18.084;2022-10-16T00:01:30;100589.50;;;17.73;91.17
66689;BME280;53587;59.318;18.084;2022-10-16T00:03:56;100593.56;;;15.36;89.38
66689;BME280;53587;59.318;18.084;2022-10-16T00:06:22;100594.63;;;15.66;92.38
66689;BME280;53587;59.318;18.084;2022-10-16T00:08:47;100594.56;;;16.52;95.64
66689;BME280;53587;59.318;18.084;2022-10-16T00:11:14;100579.25;;;17.49;94.11
66689;BME280;53587;59.318;18.084;2022-10-16T00:13:40;100576.19;;;18.05;93.16
66689;BME280;53587;59.318;18.084;2022-10-16T00:16:06;100589.91;;;16.52;88.58
66689;BME280;53587;59.318;18.084;2022-10-16T00:18:31;100584.78;;;15.23;91.11
66689;BME280;53587;59.318;18.084;2022-10-16T00:21:11;100592.16;;;15.59;91.72
66689;BME280;53587;59.318;18.084;2022-10-16T00:23:36;100584.53;;;17.16;94.71
66689;BME280;53587;59.318;18.084;2022-10-16T00:26:03;100586.75;;;17.68;94.89
66689;BME280;53587;59.318;18.084;2022-10-16T00:28:29;100582.63;;;18.19;95.00
66689;BME280;53587;59.318;18.084;2022-10-16T00:30:54;100586.31;;;16.52;89.82
66689;BME280;53587;59.318;18.084;2022-10-16T00:33:20;100579.00;;;15.51;91.52
66689;BME280;53587;59.318;18.084;2022-10-16T00:35:45;100581.97;;;15.75;93.25
66689;BME280;53587;59.318;18.084;2022-10-16T00:38:10;100592.28;;;17.09;95.80
66689;BME280;53587;59.318;18.084;2022-10-16T00:40:36;100576.47;;;17.79;93.48
66689;BME280;53587;59.318;18.084;2022-10-16T00:43:01;100568.38;;;17.63;90.50
66689;BME280;53587;59.318;18.084;2022-10-16T00:45:26;100563.13;;;15.22;88.68
66689;BME280;53587;59.318;18.084;2022-10-16T00:47:52;100568.31;;;15.44;92.18
66689;BME280;53587;59.318;18.084;2022-10-16T00:50:22;100572.09;;;16.39;95.99
66689;BME280;53587;59.318;18.084;2022-10-16T00:52:48;100576.59;;;17.39;94.13
66689;BME280;53587;59.318;18.084;2022-10-16T00:55:15;100567.78;;;17.91;92.38
66689;BME280;53587;59.318;18.084;2022-10-16T00:57:40;100560.50;;;16.87;89.17
66689;BME280;53587;59.318;18.084;2022-10-16T01:00:07;100555.72;;;15.02;89.87
66689;BME280;53587;59.318;18.084;2022-10-16T01:02:33;100564.19;;;15.46;92.07
66689;BME280;53587;59.318;18.084;2022-10-16T01:04:59;100571.75;;;16.96;95.22
66689;BME280;53587;59.318;18.084;2022-10-16T01:07:30;100574.63;;;17.69;92.40
66689;BME280;53587;59.318;18.084;2022-10-16T01:17:45;100547.63;;;16.38;96.31
66689;BME280;53587;59.318;18.084;2022-10-16T01:20:21;100545.53;;;17.33;95.09
66689;BME280;53587;59.318;18.084;2022-10-16T01:23:04;100552.22;;;18.05;92.08
66689;BME280;53587;59.318;18.084;2022-10-16T01:25:44;100551.31;;;17.61;89.78
66689;BME280;53587;59.318;18.084;2022-10-16T01:28:14;100561.19;;;15.12;90.23
66689;BME280;53587;59.318;18.084;2022-10-16T01:30:42;100562.28;;;15.47;92.58
66689;BME280;53587;59.318;18.084;2022-10-16T01:33:10;100566.84;;;16.43;95.70
66689;BME280;53587;59.318;18.084;2022-10-16T01:35:39;100564.53;;;17.35;93.41
66689;BME280;53587;59.318;18.084;2022-10-16T01:38:15;100562.94;;;18.07;90.05
66689;BME280;53587;59.318;18.084;2022-10-16T01:40:43;100574.00;;;17.24;88.97
66689;BME280;53587;59.318;18.084;2022-10-16T01:43:13;100571.91;;;14.98;89.87
66689;BME280;53587;59.318;18.084;2022-10-16T01:45:39;100575.72;;;15.38;91.71
66689;BME280;53587;59.318;18.084;2022-10-16T01:48:06;100581.03;;;16.66;94.81
66689;BME280;53587;59.318;18.084;2022-10-16T01:50:33;100574.28;;;17.51;91.92
66689;BME280;53587;59.318;18.084;2022-10-16T01:53:00;100575.59;;;18.08;90.08
66689;BME280;53587;59.318;18.084;2022-10-16T01:55:32;100578.31;;;16.61;87.66
66689;BME280;53587;59.318;18.084;2022-10-16T01:57:58;100580.16;;;15.03;91.15
66689;BME280;53587;59.318;18.084;2022-10-16T02:00:26;100585.59;;;15.50;92.89
66689;BME280;53587;59.318;18.084;2022-10-16T02:02:52;100589.25;;;16.71;96.28
66689;BME280;53587;59.318;18.084;2022-10-16T02:07:43;100561.88;;;18.02;91.01
66689;BME280;53587;59.318;18.084;2022-10-16T02:10:09;100555.81;;;17.76;88.91
66689;BME280;53587;59.318;18.084;2022-10-16T02:12:35;100555.19;;;15.15;88.69
66689;BME280;53587;59.318;18.084;2022-10-16T02:15:02;100545.25;;;15.40;91.71
66689;BME280;53587;59.318;18.084;2022-10-16T02:17:27;100548.31;;;16.14;95.57
66689;BME280;53587;59.318;18.084;2022-10-16T02:19:53;100554.50;;;17.20;93.61
66689;BME280;53587;59.318;18.084;2022-10-16T02:24:52;100555.25;;;17.79;89.38
66689;BME280;53587;59.318;18.084;2022-10-16T02:30:07;100544.72;;;15.33;91.14
66689;BME280;53587;59.318;18.084;2022-10-16T02:32:33;100544.66;;;16.29;95.71
66689;BME280;53587;59.318;18.084;2022-10-16T02:34:59;100558.53;;;17.28;92.39
66689;BME280;53587;59.318;18.084;2022-10-16T02:37:25;100559.47;;;17.96;89.39
66689;BME280;53587;59.318;18.084;2022-10-16T02:39:51;100555.59;;;17.73;87.70
66689;BME280;53587;59.318;18.084;2022-10-16T02:42:17;100569.44;;;14.91;87.68
66689;BME280;53587;59.318;18.084;2022-10-16T02:44:43;100575.19;;;15.16;92.59
66689;BME280;53587;59.318;18.084;2022-10-16T02:47:08;100576.75;;;16.44;96.94
66689;BME280;53587;59.318;18.084;2022-10-16T02:49:33;100574.19;;;17.32;94.34
66689;BME280;53587;59.318;18.084;2022-10-16T02:51:58;100550.72;;;17.89;91.58
66689;BME280;53587;59.318;18.084;2022-10-16T02:54:23;100541.88;;;18.35;89.77
66689;BME280;53587;59.318;18.084;2022-10-16T02:56:49;100541.22;;;16.03;89.11
66689;BME280;53587;59.318;18.084;2022-10-16T02:59:14;100535.94;;;15.10;91.12
66689;BME280;53587;59.318;18.084;2022-10-16T03:01:39;100535.94;;;15.41;92.03
66689;BME280;53587;59.318;18.084;2022-10-16T03:04:05;100533.56;;;16.84;94.41
66689;BME280;53587;59.318;18.084;2022-10-16T03:06:30;100533.13;;;17.60;91.23
66689;BME280;53587;59.318;18.084;2022-10-16T03:08:55;100518.66;;;18.17;89.37
66689;BME280;53587;59.318;18.084;2022-10-16T03:11:20;100517.22;;;17.76;86.93
66689;BME280;53587;59.318;18.084;2022-10-16T03:13:46;100515.09;;;15.04;88.12
66689;BME280;53587;59.318;18.084;2022-10-16T03:16:11;100516.72;;;15.30;91.26
66689;BME280;53587;59.318;18.084;2022-10-16T03:18:36;100534.28;;;16.16;95.44
66689;BME280;53587;59.318;18.084;2022-10-16T03:21:02;100522.25;;;17.20;92.88
66689;BME280;53587;59.318;18.084;2022-10-16T03:23:27;100512.34;;;17.92;89.53
66689;BME280;53587;59.318;18.084;2022-10-16T03:25:53;100508.78;;;18.35;88.02
66689;BME280;53587;59.318;18.084;2022-10-16T03:28:18;100520.63;;;15.95;88.13
66689;BME280;53587;59.318;18.084;2022-10-16T03:30:44;100522.50;;;15.03;91.18
66689;BME280;53587;59.318;18.084;2022-10-16T03:33:09;100518.31;;;15.42;93.22
66689;BME280;53587;59.318;18.084;2022-10-16T03:35:34;100527.47;;;16.87;96.06
66689;BME280;53587;59.318;18.084;2022-10-16T03:38:00;100535.06;;;17.60;92.75
66689;BME280;53587;59.318;18.084;2022-10-16T03:40:25;100528.66;;;18.13;90.33
66689;BME280;53587;59.318;18.084;2022-10-16T03:42:50;100532.78;;;17.67;88.03
66689;BME280;53587;59.318;18.084;2022-10-16T03:45:16;100523.34;;;14.98;87.89
66689;BME280;53587;59.318;18.084;2022-10-16T03:47:41;100527.41;;;15.32;92.29
66689;BME280;53587;59.318;18.084;2022-10-16T03:50:06;100513.09;;;16.21;95.31
66689;BME280;53587;59.318;18.084;2022-10-16T03:52:32;100518.41;;;17.21;92.87
66689;BME280;53587;59.318;18.084;2022-10-16T03:54:57;100501.94;;;17.89;90.11
66689;BME280;53587;59.318;18.084;2022-10-16T03:57:23;100500.13;;;18.23;87.65
66689;BME280;53587;59.318;18.084;2022-10-16T03:59:48;100500.63;;;15.79;87.89
66689;BME280;53587;59.318;18.084;2022-10-16T04:02:13;100508.78;;;15.08;90.93
66689;BME280;53587;59.318;18.084;2022-10-16T04:04:38;100502.44;;;15.34;92.28
66689;BME280;53587;59.318;18.084;2022-10-16T04:07:04;100497.78;;;16.84;93.71
66689;BME280;53587;59.318;18.084;2022-10-16T04:09:29;100494.56;;;17.60;90.77
66689;BME280;53587;59.318;18.084;2022-10-16T04:11:55;100501.22;;;18.22;88.47
66689;BME280;53587;59.318;18.084;2022-10-16T04:14:20;100497.00;;;17.62;86.99
66689;BME280;53587;59.318;18.084;2022-10-16T04:16:45;100494.75;;;15.30;87.65
66689;BME280;53587;59.318;18.084;2022-10-16T04:19:10;100501.63;;;16.09;92.25
66689;BME280;53587;59.318;18.084;2022-10-16T04:21:36;100503.53;;;17.47;95.48
66689;BME280;53587;59.318;18.084;2022-10-16T04:24:01;100496.97;;;18.48;94.53
66689;BME280;53587;59.318;18.084;2022-10-16T04:26:26;100499.28;;;18.22;90.20
66689;BME280;53587;59.318;18.084;2022-10-16T04:28:52;100515.25;;;16.24;86.29
66689;BME280;53587;59.318;18.084;2022-10-16T04:31:17;100521.94;;;17.76;93.79
66689;BME280;53587;59.318;18.084;2022-10-16T04:33:42;100516.19;;;18.92;93.19
66689;BME280;53587;59.318;18.084;2022-10-16T04:36:08;100523.53;;;18.25;89.17
66689;BME280;53587;59.318;18.084;2022-10-16T04:38:33;100508.72;;;16.15;84.98
66689;BME280;53587;59.318;18.084;2022-10-16T04:40:58;100517.25;;;18.58;94.28
66689;BME280;53587;59.318;18.084;2022-10-16T04:43:24;100507.25;;;19.14;91.28
66689;BME280;53587;59.318;18.084;2022-10-16T04:45:50;100511.03;;;17.41;86.02
66689;BME280;53587;59.318;18.084;2022-10-16T04:48:19;100513.16;;;15.30;82.84
66689;BME280;53587;59.318;18.084;2022-10-16T04:50:44;100510.84;;;18.05;93.93
66689;BME280;53587;59.318;18.084;2022-10-16T04:53:10;100504.03;;;18.93;93.47
66689;BME280;53587;59.318;18.084;2022-10-16T04:55:35;100503.59;;;17.66;87.96
66689;BME280;53587;59.318;18.084;2022-10-16T04:58:01;100473.78;;;15.66;83.60
66689;BME280;53587;59.318;18.084;2022-10-16T05:00:26;100489.97;;;17.99;94.82
66689;BME280;53587;59.318;18.084;2022-10-16T05:02:51;100472.00;;;18.92;92.12
66689;BME280;53587;59.318;18.084;2022-10-16T05:05:17;100476.13;;;17.80;88.81
66689;BME280;53587;59.318;18.084;2022-10-16T05:07:44;100488.53;;;15.80;83.33
66689;BME280;53587;59.318;18.084;2022-10-16T05:10:09;100486.72;;;17.92;93.91
66689;BME280;53587;59.318;18.084;2022-10-16T05:12:34;100490.16;;;19.26;95.40
66689;BME280;53587;59.318;18.084;2022-10-16T05:15:00;100490.72;;;18.24;89.32
66689;BME280;53587;59.318;18.084;2022-10-16T05:17:25;100498.84;;;16.14;85.00
66689;BME280;53587;59.318;18.084;2022-10-16T05:19:50;100485.97;;;17.62;94.44
66689;BME280;53587;59.318;18.084;2022-10-16T05:22:16;100486.91;;;19.24;96.52
66689;BME280;53587;59.318;18.084;2022-10-16T05:24:41;100480.28;;;18.73;91.76
66689;BME280;53587;59.318;18.084;2022-10-16T05:27:06;100494.38;;;16.63;86.24
66689;BME280;53587;59.318;18.084;2022-10-16T05:29:31;100495.34;;;14.91;84.30
66689;BME280;53587;59.318;18.084;2022-10-16T05:31:57;100498.09;;;17.66;95.45
66689;BME280;53587;59.318;18.084;2022-10-16T05:34:22;100496.41;;;19.18;96.94
66689;BME280;53587;59.318;18.084;2022-10-16T05:36:47;100491.25;;;18.97;93.46
66689;BME280;53587;59.318;18.084;2022-10-16T05:39:13;100499.91;;;16.98;86.82
66689;BME280;53587;59.318;18.084;2022-10-16T05:41:39;100492.63;;;14.96;85.09
66689;BME280;53587;59.318;18.084;2022-10-16T05:44:04;100501.13;;;17.40;95.41
66689;BME280;53587;59.318;18.084;2022-10-16T05:46:30;100495.75;;;19.07;97.18
66689;BME280;53587;59.318;18.084;2022-10-16T05:48:56;100484.38;;;18.75;93.83
66689;BME280;53587;59.318;18.084;2022-10-16T05:51:21;100488.69;;;16.49;86.33
66689;BME280;53587;59.318;18.084;2022-10-16T05:53:46;100497.00;;;14.87;85.38
66689;BME280;53587;59.318;18.084;2022-10-16T05:56:12;100493.13;;;17.63;95.10
66689;BME280;53587;59.318;18.084;2022-10-16T05:58:38;100490.88;;;19.18;97.15
66689;BME280;53587;59.318;18.084;2022-10-16T06:01:12;100484.59;;;18.79;93.42
66689;BME280;53587;59.318;18.084;2022-10-16T06:03:37;100485.09;;;16.54;86.83
66689;BME280;53587;59.318;18.084;2022-10-16T06:06:16;100501.41;;;14.88;84.68
66689;BME280;53587;59.318;18.084;2022-10-16T06:08:42;100510.53;;;18.07;95.66
66689;BME280;53587;59.318;18.084;2022-10-16T06:11:08;100514.63;;;19.33;97.39
66689;BME280;53587;59.318;18.084;2022-10-16T06:13:34;100512.19;;;18.27;91.98
66689;BME280;53587;59.318;18.084;2022-10-16T06:16:00;100511.03;;;15.98;86.64
66689;BME280;53587;59.318;18.084;2022-10-16T06:18:26;100518.41;;;14.75;85.38
66689;BME280;53587;59.318;18.084;2022-10-16T06:20:51;100514.88;;;18.32;96.14
66689;BME280;53587;59.318;18.084;2022-10-16T06:23:16;100513.56;;;19.14;95.37
66689;BME280;53587;59.318;18.084;2022-10-16T06:25:41;100523.22;;;18.27;91.49
66689;BME280;53587;59.318;18.084;2022-10-16T06:28:07;100519.25;;;16.03;86.18
66689;BME280;53587;59.318;18.084;2022-10-16T06:30:32;100520.06;;;14.76;87.87
66689;BME280;53587;59.318;18.084;2022-10-16T06:32:57;100527.56;;;18.52;96.54
66689;BME280;53587;59.318;18.084;2022-10-16T06:35:22;100522.81;;;19.38;97.01
66689;BME280;53587;59.318;18.084;2022-10-16T06:37:48;100524.69;;;18.00;90.38
66689;BME280;53587;59.318;18.084;2022-10-16T06:40:14;100533.09;;;15.72;86.21
66689;BME280;53587;59.318;18.084;2022-10-16T06:42:39;100543.09;;;15.21;91.48
66689;BME280;53587;59.318;18.084;2022-10-16T06:45:05;100535.97;;;18.61;96.92
66689;BME280;53587;59.318;18.084;2022-10-16T06:47:30;100536.63;;;19.52;98.01
66689;BME280;53587;59.318;18.084;2022-10-16T06:49:55;100532.47;;;17.93;90.81
66689;BME280;53587;59.318;18.084;2022-10-16T06:52:21;100538.56;;;15.67;86.46
66689;BME280;53587;59.318;18.084;2022-10-16T06:54:47;100540.50;;;15.66;93.72
66689;BME280;53587;59.318;18.084;2022-10-16T06:57:12;100534.91;;;18.76;96.94
66689;BME280;53587;59.318;18.084;2022-10-16T06:59:37;100542.88;;;19.43;95.90
66689;BME280;53587;59.318;18.084;2022-10-16T07:02:02;100537.00;;;17.83;90.72
66689;BME280;53587;59.318;18.084;2022-10-16T07:04:27;100545.22;;;15.55;85.53
66689;BME280;53587;59.318;18.084;2022-10-16T07:06:53;100553.69;;;16.40;95.07
66689;BME280;53587;59.318;18.084;2022-10-16T07:09:18;100549.88;;;18.89;96.85
66689;BME280;53587;59.318;18.084;2022-10-16T07:11:43;100542.84;;;19.29;95.58
66689;BME280;53587;59.318;18.084;2022-10-16T07:14:15;100549.41;;;17.57;90.08
66689;BME280;53587;59.318;18.084;2022-10-16T07:16:41;100550.19;;;15.43;85.68
66689;BME280;53587;59.318;18.084;2022-10-16T07:19:06;100565.38;;;17.01;95.67
66689;BME280;53587;59.318;18.084;2022-10-16T07:21:32;100556.22;;;19.08;97.15
66689;BME280;53587;59.318;18.084;2022-10-16T07:24:00;100555.47;;;18.83;94.47
66689;BME280;53587;59.318;18.084;2022-10-16T07:26:27;100564.06;;;16.53;87.35
66689;BME280;53587;59.318;18.084;2022-10-16T07:28:52;100561.19;;;14.91;86.07
66689;BME280;53587;59.318;18.084;2022-10-16T07:31:18;100564.19;;;17.90;96.65
66689;BME280;53587;59.318;18.084;2022-10-16T07:33:44;100554.53;;;19.40;98.40
66689;BME280;53587;59.318;18.084;2022-10-16T07:36:10;100554.69;;;18.64;93.10
66689;BME280;53587;59.318;18.084;2022-10-16T07:38:36;100566.56;;;16.50;88.04
66689;BME280;53587;59.318;18.084;2022-10-16T07:41:05;100570.28;;;14.87;85.21
66689;BME280;53587;59.318;18.084;2022-10-16T07:43:31;100575.09;;;18.25;96.18
66689;BME280;53587;59.318;18.084;2022-10-16T07:45:56;100568.84;;;19.28;97.62
66689;BME280;53587;59.318;18.084;2022-10-16T07:48:22;100573.38;;;17.85;90.43
66689;BME280;53587;59.318;18.084;2022-10-16T07:50:48;100568.78;;;15.67;86.31
66689;BME280;53587;59.318;18.084;2022-10-16T07:53:13;100569.91;;;15.60;94.37
66689;BME280;53587;59.318;18.084;2022-10-16T07:55:39;100566.78;;;18.68;97.55
66689;BME280;53587;59.318;18.084;2022-10-16T07:58:05;100566.78;;;19.20;96.28
66689;BME280;53587;59.318;18.084;2022-10-16T08:00:30;100563.44;;;17.60;90.33
66689;BME280;53587;59.318;18.084;2022-10-16T08:02:56;100563.91;;;15.43;87.02
66689;BME280;53587;59.318;18.084;2022-10-16T08:05:25;100572.94;;;16.40;95.07
66689;BME280;53587;59.318;18.084;2022-10-16T08:07:50;100563.53;;;18.80;97.77
66689;BME280;53587;59.318;18.084;2022-10-16T08:10:16;100563.91;;;19.11;96.04
66689;BME280;53587;59.318;18.084;2022-10-16T08:12:41;100557.88;;;17.41;89.05
66689;BME280;53587;59.318;18.084;2022-10-16T08:15:07;100574.91;;;15.38;85.19
66689;BME280;53587;59.318;18.084;2022-10-16T08:17:32;100591.88;;;16.86;95.88
66689;BME280;53587;59.318;18.084;2022-10-16T08:19:57;100572.06;;;19.03;96.81
66689;BME280;53587;59.318;18.084;2022-10-16T08:22:23;100591.53;;;19.11;95.01
66689;BME280;53587;59.318;18.084;2022-10-16T08:24:48;100577.19;;;17.36;89.13
66689;BME280;53587;59.318;18.084;2022-10-16T08:27:13;100581.50;;;15.37;85.72
66689;BME280;53587;59.318;18.084;2022-10-16T08:29:38;100602.06;;;17.26;95.95
66689;BME280;53587;59.318;18.084;2022-10-16T08:32:03;100593.13;;;19.12;98.14
66689;BME280;53587;59.318;18.084;2022-10-16T08:34:29;100594.38;;;18.68;93.74
66689;BME280;53587;59.318;18.084;2022-10-16T08:36:54;100593.66;;;16.72;88.26
66689;BME280;53587;59.318;18.084;2022-10-16T08:39:20;100592.22;;;14.97;85.32
66689;BME280;53587;59.318;18.084;2022-10-16T08:49:19;100593.94;;;16.20;87.49
66689;BME280;53587;59.318;18.084;2022-10-16T08:51:45;100590.28;;;14.82;84.93
66689;BME280;53587;59.318;18.084;2022-10-16T08:56:42;100588.31;;;19.37;97.11
66689;BME280;53587;59.318;18.084;2022-10-16T08:59:09;100608.31;;;18.14;92.31
66689;BME280;53587;59.318;18.084;2022-10-16T09:01:39;100593.22;;;15.94;85.28
66689;BME280;53587;59.318;18.084;2022-10-16T09:13:58;100594.91;;;15.64;86.33
66689;BME280;53587;59.318;18.084;2022-10-16T09:16:30;100601.25;;;16.85;95.61
66689;BME280;53587;59.318;18.084;2022-10-16T09:21:26;100587.50;;;18.85;94.09
66689;BME280;53587;59.318;18.084;2022-10-16T09:23:54;100597.75;;;16.74;87.63
66689;BME280;53587;59.318;18.084;2022-10-16T09:26:22;100591.66;;;15.10;85.63
66689;BME280;53587;59.318;18.084;2022-10-16T09:28:47;100605.50;;;17.71;95.97
66689;BME280;53587;59.318;18.084;2022-10-16T09:31:17;100597.28;;;19.29;97.10
66689;BME280;53587;59.318;18.084;2022-10-16T09:33:43;100594.06;;;18.50;92.77
66689;BME280;53587;59.318;18.084;2022-10-16T09:36:09;100594.88;;;16.50;87.11
66689;BME280;53587;59.318;18.084;2022-10-16T09:38:35;100618.28;;;14.89;85.51
66689;BME280;53587;59.318;18.084;2022-10-16T09:41:22;100594.38;;;18.06;95.88
66689;BME280;53587;59.318;18.084;2022-10-16T09:46:34;100591.13;;;18.23;92.33
66689;BME280;53587;59.318;18.084;2022-10-16T09:48:58;100586.88;;;15.93;86.73
66689;BME280;53587;59.318;18.084;2022-10-16T09:53:59;100613.84;;;18.77;97.50
66689;BME280;53587;59.318;18.084;2022-10-16T09:56:32;100594.00;;;19.27;95.07
66689;BME280;53587;59.318;18.084;2022-10-16T09:58:59;100594.19;;;17.43;89.04
66689;BME280;53587;59.318;18.084;2022-10-16T10:02:10;100592.47;;;15.42;85.56
66689;BME280;53587;59.318;18.084;2022-10-16T10:04:13;100600.78;;;17.47;95.79
66689;BME280;53587;59.318;18.084;2022-10-16T10:06:45;100610.97;;;19.20;97.74
66689;BME280;53587;59.318;18.084;2022-10-16T10:09:22;100588.69;;;18.78;93.73
66689;BME280;53587;59.318;18.084;2022-10-16T10:11:50;100594.31;;;16.53;87.26
66689;BME280;53587;59.318;18.084;2022-10-16T10:16:44;100610.31;;;18.09;95.59
66689;BME280;53587;59.318;18.084;2022-10-16T10:19:16;100606.63;;;19.47;98.08
66689;BME280;53587;59.318;18.084;2022-10-16T10:21:42;100599.81;;;18.35;91.10
66689;BME280;53587;59.318;18.084;2022-10-16T10:24:11;100596.69;;;16.15;86.91
66689;BME280;53587;59.318;18.084;2022-10-16T10:26:37;100606.19;;;14.85;85.44
66689;BME280;53587;59.318;18.084;2022-10-16T10:36:54;100605.63;;;15.55;85.47
66689;BME280;53587;59.318;18.084;2022-10-16T10:39:58;100613.84;;;16.52;95.77
66689;BME280;53587;59.318;18.084;2022-10-16T10:45:11;100597.50;;;18.99;94.38
66689;BME280;53587;59.318;18.084;2022-10-16T10:53:05;100603.75;;;18.29;96.47
66689;BME280;53587;59.318;18.084;2022-10-16T10:58:19;100590.41;;;17.87;90.11
66689;BME280;53587;59.318;18.084;2022-10-16T11:01:03;100596.56;;;15.44;85.11
66689;BME280;53587;59.318;18.084;2022-10-16T11:08:26;100582.94;;;18.75;93.79
66689;BME280;53587;59.318;18.084;2022-10-16T11:10:54;100582.22;;;16.49;87.09
66689;BME280;53587;59.318;18.084;2022-10-16T11:13:39;100580.41;;;14.91;85.32
66689;BME280;53587;59.318;18.084;2022-10-16T11:19:10;100598.03;;;19.02;96.18
66689;BME280;53587;59.318;18.084;2022-10-16T11:21:30;100582.88;;;17.15;88.21
66689;BME280;53587;59.318;18.084;2022-10-16T11:24:04;100571.31;;;15.32;86.02
66689;BME280;53587;59.318;18.084;2022-10-16T11:26:34;100570.91;;;17.30;95.26
66689;BME280;53587;59.318;18.084;2022-10-16T11:29:00;100561.03;;;19.17;97.83
66689;BME280;53587;59.318;18.084;2022-10-16T11:31:40;100574.66;;;18.94;94.59
66689;BME280;53587;59.318;18.084;2022-10-16T11:36:43;100565.88;;;14.91;86.56
66689;BME280;53587;59.318;18.084;2022-10-16T11:39:18;100561.28;;;18.06;96.15
66689;BME280;53587;59.318;18.084;2022-10-16T11:41:49;100555.56;;;19.44;97.44
66689;BME280;53587;59.318;18.084;2022-10-16T11:47:23;100566.03;;;15.87;86.72
66689;BME280;53587;59.318;18.084;2022-10-16T11:49:51;100563.94;;;14.65;84.66
66689;BME280;53587;59.318;18.084;2022-10-16T11:52:33;100552.28;;;17.46;95.95
66689;BME280;53587;59.318;18.084;2022-10-16T11:57:33;100558.69;;;18.14;92.13
66689;BME280;53587;59.318;18.084;2022-10-16T12:04:53;100544.72;;;18.30;96.77
66689;BME280;53587;59.318;18.084;2022-10-16T12:07:25;100536.50;;;19.29;96.26
66689;BME280;53587;59.318;18.084;2022-10-16T12:09:52;100530.47;;;17.74;90.03
66689;BME280;53587;59.318;18.084;2022-10-16T12:12:28;100521.53;;;15.70;86.25
66689;BME280;53587;59.318;18.084;2022-10-16T12:15:47;100520.66;;;17.14;95.77
66689;BME280;53587;59.318;18.084;2022-10-16T12:17:47;100513.41;;;19.25;98.01
66689;BME280;53587;59.318;18.084;2022-10-16T12:22:41;100522.25;;;16.51;86.46
66689;BME280;53587;59.318;18.084;2022-10-16T12:25:31;100512.88;;;15.16;85.36
66689;BME280;53587;59.318;18.084;2022-10-16T12:27:59;100493.97;;;18.64;96.35
66689;BME280;53587;59.318;18.084;2022-10-16T12:30:25;100508.06;;;19.28;95.34
66689;BME280;53587;59.318;18.084;2022-10-16T12:32:58;100491.50;;;17.62;89.53
66689;BME280;53587;59.318;18.084;2022-10-16T12:35:29;100475.41;;;15.61;85.89
66689;BME280;53587;59.318;18.084;2022-10-16T12:38:06;100500.59;;;14.88;85.61
66689;BME280;53587;59.318;18.084;2022-10-16T12:40:32;100488.94;;;18.14;96.11
66689;BME280;53587;59.318;18.084;2022-10-16T12:42:59;100487.59;;;19.29;96.38
66689;BME280;53587;59.318;18.084;2022-10-16T12:45:33;100481.31;;;18.25;92.40
66689;BME280;53587;59.318;18.084;2022-10-16T12:48:00;100496.16;;;15.99;86.18
66689;BME280;53587;59.318;18.084;2022-10-16T12:50:36;100488.78;;;15.03;89.52
66689;BME280;53587;59.318;18.084;2022-10-16T12:53:02;100471.72;;;18.74;96.27
66689;BME280;53587;59.318;18.084;2022-10-16T12:55:32;100469.47;;;19.09;95.32
66689;BME280;53587;59.318;18.084;2022-10-16T12:58:21;100477.41;;;17.15;89.07
66689;BME280;53587;59.318;18.084;2022-10-16T13:06:14;100462.84;;;19.10;95.15
66689;BME280;53587;59.318;18.084;2022-10-16T13:11:37;100465.88;;;15.49;85.25
66689;BME280;53587;59.318;18.084;2022-10-16T13:17:00;100440.75;;;19.24;97.49
66689;BME280;53587;59.318;18.084;2022-10-16T13:21:57;100451.03;;;16.10;86.93
66689;BME280;53587;59.318;18.084;2022-10-16T13:27:26;100427.38;;;18.51;97.01
66689;BME280;53587;59.318;18.084;2022-10-16T13:29:41;100436.44;;;19.18;94.87
66689;BME280;53587;59.318;18.084;2022-10-16T13:32:07;100423.69;;;17.42;88.62
66689;BME280;53587;59.318;18.084;2022-10-16T13:34:41;100422.22;;;15.42;85.37
66689;BME280;53587;59.318;18.084;2022-10-16T13:37:15;100416.28;;;17.42;95.93
66689;BME280;53587;59.318;18.084;2022-10-16T13:39:41;100415.16;;;19.33;98.02
66689;BME280;53587;59.318;18.084;2022-10-16T13:42:09;100425.63;;;18.89;93.76
66689;BME280;53587;59.318;18.084;2022-10-16T13:44:44;100410.59;;;16.50;86.69
66689;BME280;53587;59.318;18.084;2022-10-16T13:47:21;100415.75;;;15.07;85.96
66689;BME280;53587;59.318;18.084;2022-10-16T13:49:47;100424.03;;;18.55;97.06
66689;BME280;53587;59.318;18.084;2022-10-16T13:52:23;100410.88;;;19.26;96.07
66689;BME280;53587;59.318;18.084;2022-10-16T13:54:48;100404.97;;;17.63;89.27
66689;BME280;53587;59.318;18.084;2022-10-16T13:57:14;100398.00;;;15.54;87.34
66689;BME280;53587;59.318;18.084;2022-10-16T13:59:39;100392.03;;;16.96;95.76
66689;BME280;53587;59.318;18.084;2022-10-16T14:02:15;100386.00;;;19.12;97.04
66689;BME280;53587;59.318;18.084;2022-10-16T14:04:42;100387.44;;;18.96;93.86
66689;BME280;53587;59.318;18.084;2022-10-16T14:07:12;100390.41;;;16.89;87.17
66689;BME280;53587;59.318;18.084;2022-10-16T14:09:39;100392.72;;;15.08;86.13
66689;BME280;53587;59.318;18.084;2022-10-16T14:12:08;100406.88;;;18.06;96.22
66689;BME280;53587;59.318;18.084;2022-10-16T14:14:34;100405.75;;;19.20;96.25
66689;BME280;53587;59.318;18.084;2022-10-16T14:17:00;100406.94;;;18.19;92.00
66689;BME280;53587;59.318;18.084;2022-10-16T14:19:27;100410.41;;;16.02;86.06
66689;BME280;53587;59.318;18.084;2022-10-16T14:21:54;100403.94;;;15.17;90.72
66689;BME280;53587;59.318;18.084;2022-10-16T14:24:40;100390.75;;;18.65;97.18
66689;BME280;53587;59.318;18.084;2022-10-16T14:27:20;100381.91;;;18.96;94.46